Time;durP1;ratioP1;P1;durP2;ratioP2;P2;SDS_P1;SDS_P2;PMS_P1;PMS_P2;Temp;Humidity;BMP_temperature;BMP_pressure;BME280_temperature;BME280_humidity;BME280_pressure;Samples;Min_cycle;Max_cycle;Signal;HPM_P1;HPM_P2
2023/04/11 00:02:16;;;;;;;;;;;;;;;4.72;100.00;93165.25;5032273;28;19925;-38
2023/04/11 00:04:41;;;;;;;;;;;;;;;4.82;100.00;93155.41;5026821;28;20391;-38
2023/04/11 00:07:06;;;;;;;;;;;;;;;4.80;100.00;93149.72;5019341;28;19914;-38
2023/04/11 00:09:32;;;;;;;;;;;;;;;4.76;100.00;93155.50;5026061;28;19921;-38
2023/04/11 00:11:57;;;;;;;;;;;;;;;4.89;100.00;93146.63;5031504;28;20389;-38
2023/04/11 00:14:23;;;;;;;;;;;;;;;4.70;100.00;93132.22;5029450;28;19963;-39
2023/04/11 00:16:52;;;;;;;;;;;;;;;4.59;100.00;93142.03;5030996;28;19913;-38
2023/04/11 00:19:22;;;;;;;;;;;;;;;4.59;100.00;93142.03;5033714;28;19917;-38
2023/04/11 00:21:47;;;;;;;;;;;;;;;4.59;100.00;93131.09;5024893;28;19924;-38
2023/04/11 00:24:12;;;;;;;;;;;;;;;4.55;100.00;93136.13;5032957;28;19917;-38
2023/04/11 00:26:38;;;;;;;;;;;;;;;4.67;100.00;93139.47;5039086;28;19917;-38
2023/04/11 00:29:03;;;;;;;;;;;;;;;4.59;100.00;93136.56;5036747;28;20294;-38
2023/04/11 00:31:28;;;;;;;;;;;;;;;4.41;100.00;93142.03;5035342;28;19925;-38
2023/04/11 00:33:54;;;;;;;;;;;;;;;4.33;100.00;93139.13;5030930;28;19921;-38
2023/04/11 00:36:19;;;;;;;;;;;;;;;4.37;100.00;93136.13;5017501;28;19928;-38
2023/04/11 00:38:45;;;;;;;;;;;;;;;4.28;100.00;93129.03;5029035;28;19964;-38
2023/04/11 00:41:10;;;;;;;;;;;;;;;4.19;100.00;93126.66;5025436;28;19924;-38
2023/04/11 00:43:36;;;;;;;;;;;;;;;4.16;100.00;93121.50;5020296;28;19924;-38
2023/04/11 00:46:02;;;;;;;;;;;;;;;4.16;100.00;93124.94;5033377;28;19913;-38
2023/04/11 00:48:27;;;;;;;;;;;;;;;4.14;100.00;93124.72;5055411;28;19917;-38
2023/04/11 00:50:52;;;;;;;;;;;;;;;4.22;100.00;93124.91;5029554;28;20321;-38
2023/04/11 00:53:18;;;;;;;;;;;;;;;4.31;100.00;93122.53;5023612;28;19959;-38
2023/04/11 00:55:43;;;;;;;;;;;;;;;4.33;100.00;93127.50;5030901;28;20412;-38
2023/04/11 00:58:08;;;;;;;;;;;;;;;4.24;100.00;93130.56;5066575;28;20004;-38
2023/04/11 01:00:34;;;;;;;;;;;;;;;4.28;100.00;93131.03;5023772;28;19925;-38
2023/04/11 01:02:59;;;;;;;;;;;;;;;4.35;100.00;93130.44;5017461;28;20463;-38
2023/04/11 01:05:25;;;;;;;;;;;;;;;4.29;100.00;93127.75;5023648;28;19917;-38
2023/04/11 01:07:50;;;;;;;;;;;;;;;4.30;100.00;93128.50;5019719;28;20614;-38
2023/04/11 01:10:15;;;;;;;;;;;;;;;4.41;100.00;93118.19;5020650;28;20424;-38
2023/04/11 01:12:40;;;;;;;;;;;;;;;4.40;100.00;93124.16;5053631;28;19995;-38
2023/04/11 01:15:06;;;;;;;;;;;;;;;4.29;100.00;93119.56;5057376;28;19920;-38
2023/04/11 01:17:31;;;;;;;;;;;;;;;4.24;100.00;93112.19;5026582;28;19920;-38
2023/04/11 01:19:57;;;;;;;;;;;;;;;4.23;100.00;93107.97;5020432;28;19940;-38
2023/04/11 01:22:22;;;;;;;;;;;;;;;4.21;100.00;93110.47;5049370;28;19993;-38
2023/04/11 01:24:48;;;;;;;;;;;;;;;4.17;100.00;93101.84;5057578;28;19921;-38
2023/04/11 01:27:13;;;;;;;;;;;;;;;4.09;100.00;93100.97;5016955;28;19917;-38
2023/04/11 01:29:38;;;;;;;;;;;;;;;4.12;100.00;93088.97;5026992;28;20428;-38
2023/04/11 01:32:04;;;;;;;;;;;;;;;4.35;100.00;93095.63;5024753;28;20492;-38
2023/04/11 01:34:29;;;;;;;;;;;;;;;4.45;100.00;93090.53;5032276;28;20393;-38
2023/04/11 01:36:54;;;;;;;;;;;;;;;4.43;100.00;93088.34;5030560;28;19960;-38
2023/04/11 01:39:20;;;;;;;;;;;;;;;4.38;100.00;93078.22;5030962;28;19924;-38
2023/04/11 01:41:45;;;;;;;;;;;;;;;4.43;100.00;93088.34;5021550;28;19917;-38
2023/04/11 01:44:10;;;;;;;;;;;;;;;4.63;100.00;93081.59;5026801;28;19917;-38
2023/04/11 01:46:36;;;;;;;;;;;;;;;4.71;100.00;93087.94;5058606;28;19939;-38
2023/04/11 01:49:02;;;;;;;;;;;;;;;4.79;100.00;93085.31;5027230;28;20361;-38
2023/04/11 01:51:27;;;;;;;;;;;;;;;4.72;100.00;93085.94;5016498;28;19928;-38
2023/04/11 01:53:52;;;;;;;;;;;;;;;4.65;100.00;93079.09;5020941;28;19936;-38
2023/04/11 01:56:18;;;;;;;;;;;;;;;4.62;100.00;93082.84;5029943;28;19972;-38
2023/04/11 01:58:43;;;;;;;;;;;;;;;4.46;100.00;93075.63;5018717;28;20312;-38
2023/04/11 02:01:08;;;;;;;;;;;;;;;4.54;100.00;93077.25;5029915;28;19967;-38
2023/04/11 02:03:35;;;;;;;;;;;;;;;4.60;100.00;93077.91;5035918;28;19921;-38
2023/04/11 02:06:00;;;;;;;;;;;;;;;4.63;100.00;93076.13;5027075;28;20393;-38
2023/04/11 02:08:26;;;;;;;;;;;;;;;4.55;100.00;93075.25;5027841;28;19921;-38
2023/04/11 02:10:51;;;;;;;;;;;;;;;4.66;100.00;93079.84;5025752;28;19913;-38
2023/04/11 02:13:16;;;;;;;;;;;;;;;4.66;100.00;93075.09;5020208;28;19914;-38
2023/04/11 02:15:41;;;;;;;;;;;;;;;4.59;100.00;93070.22;5015117;28;19937;-38
2023/04/11 02:18:08;;;;;;;;;;;;;;;4.56;100.00;93074.00;5024157;28;19936;-38
2023/04/11 02:20:33;;;;;;;;;;;;;;;4.55;100.00;93075.25;5028658;28;19964;-38
2023/04/11 02:23:03;;;;;;;;;;;;;;;4.76;100.00;93076.19;5016874;28;19964;-38
2023/04/11 02:25:28;;;;;;;;;;;;;;;4.73;100.00;93073.75;5022515;28;19920;-38
2023/04/11 02:27:53;;;;;;;;;;;;;;;4.80;100.00;93082.09;5026170;28;19924;-38
2023/04/11 02:30:18;;;;;;;;;;;;;;;4.70;100.00;93066.59;5020935;28;19925;-38
2023/04/11 02:32:45;;;;;;;;;;;;;;;4.52;100.00;93068.84;5019912;28;19971;-38
2023/04/11 02:35:10;;;;;;;;;;;;;;;4.35;100.00;93067.59;5017617;28;20015;-38
2023/04/11 02:37:36;;;;;;;;;;;;;;;4.43;100.00;93074.66;5026928;28;20021;-38
2023/04/11 02:40:02;;;;;;;;;;;;;;;4.53;100.00;93064.81;5025774;28;20012;-38
2023/04/11 02:42:28;;;;;;;;;;;;;;;4.44;100.00;93057.00;5021885;28;19928;-40
2023/04/11 02:44:54;;;;;;;;;;;;;;;4.60;100.00;93064.25;5018015;28;19913;-39
2023/04/11 02:47:19;;;;;;;;;;;;;;;4.59;100.00;93059.28;5025318;28;19948;-39
2023/04/11 02:49:45;;;;;;;;;;;;;;;4.66;100.00;93057.97;5020304;28;20336;-39
2023/04/11 02:52:10;;;;;;;;;;;;;;;4.55;100.00;93061.56;5020822;28;19920;-39
2023/04/11 02:54:35;;;;;;;;;;;;;;;4.54;100.00;93060.09;5025813;28;20042;-39
2023/04/11 02:57:01;;;;;;;;;;;;;;;4.53;100.00;93059.34;5024947;28;19917;-38
2023/04/11 02:59:26;;;;;;;;;;;;;;;4.57;100.00;93059.78;5026378;28;20421;-38
2023/04/11 03:01:56;;;;;;;;;;;;;;;4.50;100.00;93057.66;5026645;28;20405;-38
2023/04/11 03:04:21;;;;;;;;;;;;;;;4.45;100.00;93050.28;5025917;28;19928;-39
2023/04/11 03:06:46;;;;;;;;;;;;;;;4.48;100.00;93062.91;5028335;28;19921;-39
2023/04/11 03:09:11;;;;;;;;;;;;;;;4.44;100.00;93054.28;5026494;28;20399;-38
2023/04/11 03:11:36;;;;;;;;;;;;;;;4.65;100.00;93065.41;5031617;28;19917;-38
2023/04/11 03:14:02;;;;;;;;;;;;;;;4.69;100.00;93060.38;5031489;28;20424;-39
2023/04/11 03:16:27;;;;;;;;;;;;;;;4.61;100.00;93062.97;5028512;28;19924;-39
2023/04/11 03:18:52;;;;;;;;;;;;;;;4.76;100.00;93065.25;5020169;28;20008;-38
2023/04/11 03:21:18;;;;;;;;;;;;;;;4.53;100.00;93070.28;5025497;28;19916;-39
2023/04/11 03:23:43;;;;;;;;;;;;;;;4.44;100.00;93078.88;5026807;28;19913;-38
2023/04/11 03:26:08;;;;;;;;;;;;;;;4.26;100.00;93078.88;5022302;28;19963;-39
2023/04/11 03:28:34;;;;;;;;;;;;;;;4.15;100.00;93071.56;5020836;28;20395;-39
2023/04/11 03:30:59;;;;;;;;;;;;;;;4.21;100.00;93063.28;5022405;28;19935;-39
2023/04/11 03:33:24;;;;;;;;;;;;;;;4.16;100.00;93080.50;5026417;28;20391;-39
2023/04/11 03:35:50;;;;;;;;;;;;;;;4.19;100.00;93072.00;5025930;28;19967;-39
2023/04/11 03:38:15;;;;;;;;;;;;;;;4.09;100.00;93068.19;5025205;28;19917;-39
2023/04/11 03:40:40;;;;;;;;;;;;;;;4.04;100.00;93068.22;5022377;28;20433;-39
2023/04/11 03:43:05;;;;;;;;;;;;;;;4.11;100.00;93068.41;5021079;28;19999;-39
2023/04/11 03:45:31;;;;;;;;;;;;;;;4.16;100.00;93053.19;5025017;28;19921;-39
2023/04/11 03:47:56;;;;;;;;;;;;;;;4.05;100.00;93059.50;5021473;28;20016;-39
2023/04/11 03:50:21;;;;;;;;;;;;;;;4.03;100.00;93056.56;5024788;28;19927;-39
2023/04/11 03:52:47;;;;;;;;;;;;;;;4.16;100.00;93056.66;5056088;28;20471;-39
2023/04/11 03:55:12;;;;;;;;;;;;;;;4.16;100.00;93050.47;5025192;28;20372;-39
2023/04/11 03:57:37;;;;;;;;;;;;;;;4.07;100.00;93032.41;5026252;28;19978;-39
2023/04/11 04:00:04;;;;;;;;;;;;;;;4.17;100.00;93046.47;5027408;28;19917;-39
2023/04/11 04:02:30;;;;;;;;;;;;;;;4.17;100.00;93032.81;5027368;28;20348;-39
2023/04/11 04:04:57;;;;;;;;;;;;;;;4.27;100.00;93037.38;5022217;28;19925;-39
2023/04/11 04:07:26;;;;;;;;;;;;;;;4.21;100.00;93036.72;5021926;28;19956;-39
2023/04/11 04:09:51;;;;;;;;;;;;;;;4.30;100.00;93041.81;5023246;28;19932;-39
2023/04/11 04:12:17;;;;;;;;;;;;;;;4.25;100.00;93033.69;5013591;28;19924;-39
2023/04/11 04:14:43;;;;;;;;;;;;;;;4.30;100.00;93030.13;5017156;28;19917;-39
2023/04/11 04:17:08;;;;;;;;;;;;;;;4.30;100.00;93030.13;5022826;28;19921;-39
2023/04/11 04:19:34;;;;;;;;;;;;;;;4.38;100.00;93031.00;5027338;28;19925;-39
2023/04/11 04:21:59;;;;;;;;;;;;;;;4.34;100.00;93034.06;5023308;28;19986;-39
2023/04/11 04:24:28;;;;;;;;;;;;;;;4.35;100.00;93021.84;5026557;28;20735;-39
2023/04/11 04:26:56;;;;;;;;;;;;;;;4.36;100.00;93023.34;5027657;28;20298;-39
2023/04/11 04:29:22;;;;;;;;;;;;;;;4.46;100.00;93027.16;5026084;28;19964;-39
2023/04/11 04:31:51;;;;;;;;;;;;;;;4.55;100.00;93032.25;5027036;28;19949;-39
2023/04/11 04:34:20;;;;;;;;;;;;;;;4.50;100.00;93027.59;5030402;28;19966;-39
2023/04/11 04:36:46;;;;;;;;;;;;;;;4.55;100.00;93028.75;5026110;28;20011;-39
2023/04/11 04:39:16;;;;;;;;;;;;;;;4.58;100.00;93033.19;5028755;28;20067;-40
2023/04/11 04:41:47;;;;;;;;;;;;;;;4.57;100.00;93029.72;5031015;28;20351;-39
2023/04/11 04:44:16;;;;;;;;;;;;;;;4.69;100.00;93035.03;5030074;28;19917;-40
2023/04/11 04:46:41;;;;;;;;;;;;;;;4.67;100.00;93024.63;5028245;28;19982;-39
2023/04/11 04:49:06;;;;;;;;;;;;;;;4.56;100.00;93027.53;5026279;28;19929;-39
2023/04/11 04:51:32;;;;;;;;;;;;;;;4.74;100.00;93023.28;5027146;28;20332;-39
2023/04/11 04:53:58;;;;;;;;;;;;;;;4.73;100.00;93032.72;5030820;28;20344;-39
2023/04/11 04:56:23;;;;;;;;;;;;;;;4.77;100.00;93024.94;5030439;28;19982;-39
2023/04/11 04:58:49;;;;;;;;;;;;;;;4.75;100.00;93024.72;5027974;28;20417;-39
2023/04/11 05:01:15;;;;;;;;;;;;;;;4.73;100.00;93028.00;5034424;28;19925;-39
2023/04/11 05:03:41;;;;;;;;;;;;;;;4.80;100.00;93029.38;5033458;28;20015;-39
2023/04/11 05:06:08;;;;;;;;;;;;;;;4.89;100.00;93015.31;5031372;28;20063;-39
2023/04/11 05:08:33;;;;;;;;;;;;;;;4.85;100.00;93017.63;5027988;28;20438;-39
2023/04/11 05:10:58;;;;;;;;;;;;;;;4.83;100.00;93020.16;5025910;28;19918;-39
2023/04/11 05:13:24;;;;;;;;;;;;;;;4.87;100.00;93017.84;5022021;28;19921;-39
2023/04/11 05:15:50;;;;;;;;;;;;;;;4.87;100.00;93015.09;5022758;28;20423;-39
2023/04/11 05:18:15;;;;;;;;;;;;;;;4.99;100.00;93019.88;5024087;28;20397;-39
2023/04/11 05:20:40;;;;;;;;;;;;;;;4.91;100.00;93019.00;5027617;28;19939;-39
2023/04/11 05:23:06;;;;;;;;;;;;;;;4.75;100.00;93022.00;5027902;28;20027;-39
2023/04/11 05:25:31;;;;;;;;;;;;;;;4.63;100.00;93019.44;5025877;28;20538;-39
2023/04/11 05:27:56;;;;;;;;;;;;;;;4.79;100.00;93025.91;5024929;28;19924;-39
2023/04/11 05:30:21;;;;;;;;;;;;;;;4.88;100.00;93016.56;5029830;28;20510;-39
2023/04/11 05:32:47;;;;;;;;;;;;;;;4.86;100.00;93013.63;5024193;28;19928;-39
2023/04/11 05:35:12;;;;;;;;;;;;;;;4.87;100.00;93021.31;5025456;28;19921;-39
2023/04/11 05:37:38;;;;;;;;;;;;;;;4.95;100.00;93016.69;5029797;28;20004;-39
2023/04/11 05:40:04;;;;;;;;;;;;;;;4.97;100.00;93021.66;5027979;28;19952;-39
2023/04/11 05:42:29;;;;;;;;;;;;;;;5.02;100.00;93021.56;5026746;28;19996;-39
2023/04/11 05:44:55;;;;;;;;;;;;;;;5.12;100.00;93017.16;5031250;28;20024;-39
2023/04/11 05:47:20;;;;;;;;;;;;;;;5.16;100.00;93019.56;5027053;28;20558;-39
2023/04/11 05:49:47;;;;;;;;;;;;;;;5.24;100.00;93012.22;5016888;28;19932;-39
2023/04/11 05:52:12;;;;;;;;;;;;;;;5.40;100.00;93008.44;5020269;28;19921;-41
2023/04/11 05:54:37;;;;;;;;;;;;;;;5.42;100.00;93011.38;5026141;28;19916;-41
2023/04/11 05:57:03;;;;;;;;;;;;;;;5.64;100.00;93000.03;5025271;28;20448;-42
2023/04/11 05:59:30;;;;;;;;;;;;;;;5.67;100.00;93000.97;5014555;28;19964;-39
2023/04/11 06:01:55;;;;;;;;;;;;;;;5.61;100.00;92994.88;5026804;28;19927;-39
2023/04/11 06:04:21;;;;;;;;;;;;;;;5.79;100.00;93000.22;5027714;28;20031;-39
2023/04/11 06:06:46;;;;;;;;;;;;;;;5.93;100.00;92996.22;5032619;28;19920;-38
2023/04/11 06:09:12;;;;;;;;;;;;;;;5.98;100.00;92987.16;5025826;28;19940;-38
2023/04/11 06:11:37;;;;;;;;;;;;;;;6.03;100.00;92988.28;5032458;28;20403;-39
2023/04/11 06:14:02;;;;;;;;;;;;;;;6.11;100.00;92983.63;5020522;28;19921;-39
2023/04/11 06:16:28;;;;;;;;;;;;;;;6.25;100.00;92989.81;5029283;28;19921;-39
2023/04/11 06:18:53;;;;;;;;;;;;;;;6.29;100.00;92979.25;5023476;28;20373;-39
2023/04/11 06:21:18;;;;;;;;;;;;;;;6.36;100.00;92989.56;5023740;28;19925;-38
2023/04/11 06:23:44;;;;;;;;;;;;;;;6.27;100.00;92979.06;5028992;28;20836;-38
2023/04/11 06:26:09;;;;;;;;;;;;;;;6.41;99.32;92972.28;5022514;28;19928;-39
2023/04/11 06:28:34;;;;;;;;;;;;;;;6.51;98.46;92974.03;5020617;28;19924;-39
2023/04/11 06:31:00;;;;;;;;;;;;;;;6.61;97.30;92972.28;5026051;28;19921;-39
2023/04/11 06:33:25;;;;;;;;;;;;;;;6.65;96.49;92977.41;5029963;28;19927;-39
2023/04/11 06:35:50;;;;;;;;;;;;;;;6.72;96.27;92969.28;5021106;28;19925;-39
2023/04/11 06:38:16;;;;;;;;;;;;;;;6.89;95.08;92969.59;5023596;28;19937;-39
2023/04/11 06:40:41;;;;;;;;;;;;;;;6.92;94.12;92972.53;5023903;28;19918;-39
2023/04/11 06:43:06;;;;;;;;;;;;;;;6.96;94.62;92962.72;5027926;28;19920;-39
2023/04/11 06:45:31;;;;;;;;;;;;;;;6.98;94.66;92965.66;5027758;28;19928;-39
2023/04/11 06:47:57;;;;;;;;;;;;;;;6.98;93.72;92962.91;5028373;28;19997;-39
2023/04/11 06:50:22;;;;;;;;;;;;;;;6.83;92.85;92969.00;5033726;28;19921;-39
2023/04/11 06:52:47;;;;;;;;;;;;;;;6.80;93.44;92961.09;5023041;28;20059;-39
2023/04/11 06:55:14;;;;;;;;;;;;;;;6.84;94.03;92958.78;5028221;28;20305;-39
2023/04/11 06:57:39;;;;;;;;;;;;;;;6.89;93.28;92953.13;5025493;28;20026;-39
2023/04/11 07:00:06;;;;;;;;;;;;;;;7.08;91.74;92954.94;5021016;28;20407;-39
2023/04/11 07:02:34;;;;;;;;;;;;;;;7.16;88.61;92950.22;5029981;28;19925;-39
2023/04/11 07:04:59;;;;;;;;;;;;;;;7.16;89.56;92961.22;5025234;28;19977;-39
2023/04/11 07:07:25;;;;;;;;;;;;;;;7.41;88.53;92949.28;5030228;28;19925;-39
2023/04/11 07:09:50;;;;;;;;;;;;;;;7.51;87.50;92964.00;5025524;28;19928;-39
2023/04/11 07:12:15;;;;;;;;;;;;;;;7.50;85.41;92959.03;5023623;28;20417;-39
2023/04/11 07:14:41;;;;;;;;;;;;;;;7.31;86.46;92956.56;5022392;28;20035;-39
2023/04/11 07:17:06;;;;;;;;;;;;;;;7.45;85.95;92955.16;5021756;28;20644;-39
2023/04/11 07:19:31;;;;;;;;;;;;;;;7.49;85.00;92952.09;5022712;28;19994;-39
2023/04/11 07:21:57;;;;;;;;;;;;;;;7.55;87.79;92950.66;5015479;28;19913;-39
2023/04/11 07:24:22;;;;;;;;;;;;;;;7.76;86.72;92952.59;5033621;28;19993;-39
2023/04/11 07:26:49;;;;;;;;;;;;;;;7.73;85.57;92957.19;5024797;28;19938;-39
2023/04/11 07:29:14;;;;;;;;;;;;;;;7.92;84.30;92954.88;5022583;28;20007;-39
2023/04/11 07:31:40;;;;;;;;;;;;;;;7.72;84.23;92952.94;5030262;28;19920;-39
2023/04/11 07:34:05;;;;;;;;;;;;;;;7.79;85.95;92946.03;5024102;28;19952;-39
2023/04/11 07:36:31;;;;;;;;;;;;;;;7.83;83.41;92943.66;5017359;28;19921;-39
2023/04/11 07:38:58;;;;;;;;;;;;;;;7.85;83.78;92943.84;5026312;28;19925;-39
2023/04/11 07:41:24;;;;;;;;;;;;;;;7.72;82.85;92939.22;5022045;28;19921;-39
2023/04/11 07:43:49;;;;;;;;;;;;;;;7.70;83.12;92930.03;5021530;28;19921;-39
2023/04/11 07:46:15;;;;;;;;;;;;;;;7.73;84.53;92937.19;5020292;28;19939;-39
2023/04/11 07:48:40;;;;;;;;;;;;;;;7.70;86.34;92930.03;5019767;28;19925;-39
2023/04/11 07:51:05;;;;;;;;;;;;;;;7.84;89.61;92931.38;5017862;28;19963;-39
2023/04/11 07:53:31;;;;;;;;;;;;;;;8.09;87.24;92929.66;5015733;28;19963;-39
2023/04/11 07:55:56;;;;;;;;;;;;;;;8.04;88.80;92927.78;5022659;28;20016;-39
2023/04/11 07:58:22;;;;;;;;;;;;;;;8.26;88.29;92932.66;5017335;28;19917;-39
2023/04/11 08:00:49;;;;;;;;;;;;;;;8.18;87.70;92920.88;5021375;28;20413;-45
2023/04/11 08:03:15;;;;;;;;;;;;;;;8.15;87.27;92910.97;5026661;28;20398;-39
2023/04/11 08:05:40;;;;;;;;;;;;;;;8.35;88.48;92915.63;5022755;28;19985;-39
2023/04/11 08:08:06;;;;;;;;;;;;;;;8.58;87.70;92919.13;5022876;28;20063;-39
2023/04/11 08:10:31;;;;;;;;;;;;;;;8.58;87.13;92913.63;5023498;28;20306;-39
2023/04/11 08:12:59;;;;;;;;;;;;;;;8.63;84.33;92909.25;5025529;28;19964;-39
2023/04/11 08:15:25;;;;;;;;;;;;;;;8.61;86.06;92915.31;5020211;28;20372;-39
2023/04/11 08:17:50;;;;;;;;;;;;;;;8.53;87.15;92911.81;5021497;28;19921;-39
2023/04/11 08:20:16;;;;;;;;;;;;;;;8.55;86.49;92912.00;5026656;28;19921;-39
2023/04/11 08:22:43;;;;;;;;;;;;;;;8.70;83.62;92914.75;5027712;28;19917;-39
2023/04/11 08:25:09;;;;;;;;;;;;;;;8.74;83.85;92911.63;5031849;28;19950;-39
2023/04/11 08:27:34;;;;;;;;;;;;;;;8.75;84.15;92899.34;5037724;28;20748;-39
2023/04/11 08:30:00;;;;;;;;;;;;;;;8.88;83.76;92905.41;5027323;28;19922;-39
2023/04/11 08:32:25;;;;;;;;;;;;;;;8.89;82.43;92906.13;5024777;28;20446;-39
2023/04/11 08:34:51;;;;;;;;;;;;;;;9.14;81.90;92905.00;5029641;28;19920;-39
2023/04/11 08:37:16;;;;;;;;;;;;;;;9.05;81.53;92900.06;5024819;28;20309;-39
2023/04/11 08:39:41;;;;;;;;;;;;;;;8.98;82.87;92897.31;5015066;28;19913;-39
2023/04/11 08:42:06;;;;;;;;;;;;;;;9.12;83.12;92896.56;5025201;28;20011;-39
2023/04/11 08:44:32;;;;;;;;;;;;;;;9.02;81.96;92903.19;5053141;28;20564;-39
2023/04/11 08:46:57;;;;;;;;;;;;;;;9.04;82.74;92893.09;5032989;28;20012;-39
2023/04/11 08:49:22;;;;;;;;;;;;;;;9.06;83.23;92896.03;5025723;28;20490;-39
2023/04/11 08:51:48;;;;;;;;;;;;;;;9.05;82.30;92897.31;5017302;28;19914;-39
2023/04/11 08:54:13;;;;;;;;;;;;;;;9.22;81.55;92887.75;5053323;28;20027;-39
2023/04/11 08:56:39;;;;;;;;;;;;;;;9.47;80.92;92889.34;5031787;28;20440;-39
2023/04/11 08:59:05;;;;;;;;;;;;;;;9.43;80.51;92885.50;5031044;28;19921;-39
2023/04/11 09:01:31;;;;;;;;;;;;;;;9.51;79.91;92883.44;5030838;28;19976;-39
2023/04/11 09:03:57;;;;;;;;;;;;;;;9.51;79.24;92877.94;5027824;28;20328;-39
2023/04/11 09:06:23;;;;;;;;;;;;;;;9.56;77.53;92880.50;5028765;28;19914;-39
2023/04/11 09:08:48;;;;;;;;;;;;;;;9.69;79.43;92882.31;5030268;28;19923;-39
2023/04/11 09:11:13;;;;;;;;;;;;;;;9.57;75.63;92878.50;5030124;28;20393;-39
2023/04/11 09:13:39;;;;;;;;;;;;;;;9.75;76.04;92867.03;5030142;28;19935;-39
2023/04/11 09:16:04;;;;;;;;;;;;;;;10.01;77.75;92860.28;5030999;28;19940;-39
2023/04/11 09:18:33;;;;;;;;;;;;;;;10.33;76.07;92860.31;5029443;28;19921;-39
2023/04/11 09:21:00;;;;;;;;;;;;;;;10.45;72.01;92855.84;5031221;28;19917;-39
2023/04/11 09:23:26;;;;;;;;;;;;;;;10.51;69.74;92858.38;5030176;28;20333;-39
2023/04/11 09:25:51;;;;;;;;;;;;;;;10.66;68.89;92847.94;5031887;28;19920;-39
2023/04/11 09:28:16;;;;;;;;;;;;;;;10.61;69.93;92842.66;5031794;28;19928;-39
2023/04/11 09:30:48;;;;;;;;;;;;;;;10.73;68.26;92849.19;5035603;28;19921;-39
2023/04/11 09:33:23;;;;;;;;;;;;;;;10.87;68.68;92831.03;5025315;28;19924;-39
2023/04/11 09:35:52;;;;;;;;;;;;;;;11.06;65.38;92838.78;5030408;28;19955;-39
2023/04/11 09:38:30;;;;;;;;;;;;;;;11.24;65.27;92832.69;5029871;28;19991;-39
2023/04/11 09:40:56;;;;;;;;;;;;;;;11.21;63.78;92831.09;5027359;28;19970;-39
2023/04/11 09:43:21;;;;;;;;;;;;;;;11.24;61.55;92838.22;5022033;28;19917;-39
2023/04/11 09:45:46;;;;;;;;;;;;;;;11.48;60.11;92825.63;5020814;28;19980;-39
2023/04/11 09:48:12;;;;;;;;;;;;;;;11.61;58.59;92819.06;5022257;28;20291;-39
2023/04/11 09:50:37;;;;;;;;;;;;;;;12.06;59.50;92816.47;5020251;28;19924;-39
2023/04/11 09:53:03;;;;;;;;;;;;;;;12.31;56.86;92812.81;5052596;28;20317;-39
2023/04/11 09:55:28;;;;;;;;;;;;;;;12.82;53.77;92810.53;5059815;28;19919;-39
2023/04/11 09:57:53;;;;;;;;;;;;;;;13.04;52.59;92805.22;5026767;28;19921;-39
2023/04/11 10:00:29;;;;;;;;;;;;;;;12.94;53.13;92807.97;5016093;28;19921;-39
2023/04/11 10:02:54;;;;;;;;;;;;;;;13.92;52.97;92795.06;5033777;28;20423;-39
2023/04/11 10:05:24;;;;;;;;;;;;;;;14.59;52.19;92791.41;5025820;28;19925;-39
2023/04/11 10:07:56;;;;;;;;;;;;;;;14.67;48.64;92789.91;5028168;28;20393;-39
2023/04/11 10:10:22;;;;;;;;;;;;;;;15.05;49.75;92784.16;5026492;28;19971;-39
2023/04/11 10:12:47;;;;;;;;;;;;;;;15.65;46.93;92778.34;5058631;28;19960;-39
2023/04/11 10:15:13;;;;;;;;;;;;;;;15.08;46.34;92788.53;5026356;28;19943;-39
2023/04/11 10:17:39;;;;;;;;;;;;;;;14.78;46.32;92777.41;5059210;28;19917;-39
2023/04/11 10:20:24;;;;;;;;;;;;;;;15.70;46.07;92780.78;5030684;28;19928;-40
2023/04/11 10:22:50;;;;;;;;;;;;;;;16.05;43.28;92775.34;5027369;28;20435;-39
2023/04/11 10:25:23;;;;;;;;;;;;;;;15.30;46.05;92782.97;5016449;28;19919;-39
2023/04/11 10:27:49;;;;;;;;;;;;;;;14.73;42.27;92778.47;5014095;28;19917;-39
2023/04/11 10:30:15;;;;;;;;;;;;;;;14.63;45.15;92761.84;5023947;28;19932;-39
2023/04/11 10:32:40;;;;;;;;;;;;;;;14.92;45.23;92759.63;5027197;28;20031;-39
2023/04/11 10:35:18;;;;;;;;;;;;;;;14.49;45.97;92760.16;5019712;28;20328;-39
2023/04/11 10:37:43;;;;;;;;;;;;;;;14.21;48.25;92747.78;5021664;28;19920;-39
2023/04/11 10:40:08;;;;;;;;;;;;;;;13.56;47.54;92764.72;5018643;28;20000;-39
2023/04/11 10:42:34;;;;;;;;;;;;;;;13.29;47.16;92766.91;5025800;28;19913;-39
2023/04/11 10:45:18;;;;;;;;;;;;;;;12.94;49.04;92756.06;5026353;28;19917;-39
2023/04/11 10:47:58;;;;;;;;;;;;;;;13.49;51.13;92752.44;5023243;28;20425;-39
2023/04/11 10:50:24;;;;;;;;;;;;;;;13.28;49.78;92751.56;5013745;28;19917;-39
2023/04/11 10:52:49;;;;;;;;;;;;;;;13.25;48.62;92744.44;5020169;28;19914;-39
2023/04/11 10:55:15;;;;;;;;;;;;;;;13.89;48.32;92728.88;5023281;28;20554;-39
2023/04/11 10:57:59;;;;;;;;;;;;;;;15.08;46.69;92732.19;5022187;28;19917;-40
2023/04/11 11:00:26;;;;;;;;;;;;;;;14.48;45.40;92736.47;5033709;28;19924;-39
2023/04/11 11:02:52;;;;;;;;;;;;;;;13.80;44.61;92724.81;5052881;28;20427;-39
2023/04/11 11:05:17;;;;;;;;;;;;;;;13.93;47.02;92729.16;5021047;28;20063;-39
2023/04/11 11:07:46;;;;;;;;;;;;;;;13.85;48.01;92728.59;5021130;28;19963;-39
2023/04/11 11:10:12;;;;;;;;;;;;;;;13.34;46.78;92725.00;5020260;28;19952;-39
2023/04/11 11:12:37;;;;;;;;;;;;;;;13.06;47.71;92719.50;5022064;28;20427;-39
2023/04/11 11:15:12;;;;;;;;;;;;;;;13.18;49.89;92721.09;5061123;28;19913;-39
2023/04/11 11:17:37;;;;;;;;;;;;;;;13.44;47.40;92717.44;5026008;28;19959;-40
2023/04/11 11:20:08;;;;;;;;;;;;;;;13.29;45.37;92717.75;5022104;28;19956;-39
2023/04/11 11:22:34;;;;;;;;;;;;;;;13.06;44.71;92716.72;5028603;28;20482;-39
2023/04/11 11:25:08;;;;;;;;;;;;;;;13.55;44.83;92708.53;5060850;28;19917;-39
2023/04/11 11:27:34;;;;;;;;;;;;;;;13.83;43.92;92714.59;5018481;28;19914;-39
2023/04/11 11:30:09;;;;;;;;;;;;;;;14.91;44.44;92702.59;5024447;28;19978;-39
2023/04/11 11:32:34;;;;;;;;;;;;;;;15.22;43.56;92690.69;5022887;28;20007;-39
2023/04/11 11:35:11;;;;;;;;;;;;;;;15.68;41.77;92680.47;5023962;28;20016;-39
2023/04/11 11:37:36;;;;;;;;;;;;;;;15.67;41.91;92683.88;5022800;28;19925;-39
2023/04/11 11:40:04;;;;;;;;;;;;;;;16.00;40.35;92690.13;5060714;28;19913;-39
2023/04/11 11:42:30;;;;;;;;;;;;;;;16.52;37.24;92670.34;5026178;28;19917;-42
2023/04/11 11:45:12;;;;;;;;;;;;;;;16.43;40.55;92669.09;5024611;28;19920;-39
2023/04/11 11:47:44;;;;;;;;;;;;;;;15.83;40.82;92674.47;5025107;28;20475;-39
2023/04/11 11:50:10;;;;;;;;;;;;;;;14.96;38.95;92670.97;5028345;28;19967;-39
2023/04/11 11:52:40;;;;;;;;;;;;;;;13.94;40.94;92673.09;5020714;28;19920;-39
2023/04/11 11:55:25;;;;;;;;;;;;;;;13.20;42.28;92670.59;5026434;28;20440;-39
2023/04/11 11:57:50;;;;;;;;;;;;;;;13.01;42.98;92676.13;5025514;28;19940;-39
2023/04/11 12:00:22;;;;;;;;;;;;;;;13.11;44.95;92671.34;5024197;28;19918;-39
2023/04/11 12:02:50;;;;;;;;;;;;;;;14.15;44.18;92661.31;5027530;28;20436;-39
2023/04/11 12:05:15;;;;;;;;;;;;;;;14.81;41.44;92649.13;5024497;28;20328;-39
2023/04/11 12:07:40;;;;;;;;;;;;;;;14.84;40.37;92644.44;5053769;28;19917;-39
2023/04/11 12:10:07;;;;;;;;;;;;;;;14.40;40.97;92648.50;5024420;28;19922;-39
2023/04/11 12:12:36;;;;;;;;;;;;;;;14.99;41.52;92632.91;5025220;28;19917;-39
2023/04/11 12:15:02;;;;;;;;;;;;;;;15.31;38.94;92639.81;5022436;28;20417;-39
2023/04/11 12:17:33;;;;;;;;;;;;;;;16.11;41.25;92636.50;5026502;28;19966;-39
2023/04/11 12:19:59;;;;;;;;;;;;;;;15.69;36.86;92634.63;5022459;28;19920;-39
2023/04/11 12:22:24;;;;;;;;;;;;;;;15.00;41.44;92653.81;5060807;28;19917;-39
2023/04/11 12:25:02;;;;;;;;;;;;;;;14.30;42.03;92647.09;5021578;28;19913;-39
2023/04/11 12:27:27;;;;;;;;;;;;;;;13.43;43.00;92641.09;5018284;28;20465;-39
2023/04/11 12:29:53;;;;;;;;;;;;;;;13.18;42.64;92643.47;5026534;28;20012;-39
2023/04/11 12:32:18;;;;;;;;;;;;;;;13.03;43.47;92638.22;5022332;28;19917;-39
2023/04/11 12:34:43;;;;;;;;;;;;;;;13.45;43.21;92635.69;5028300;28;20004;-39
2023/04/11 12:37:09;;;;;;;;;;;;;;;14.42;42.58;92626.41;5029064;28;19913;-39
2023/04/11 12:39:34;;;;;;;;;;;;;;;14.71;42.18;92623.47;5028817;28;19916;-39
2023/04/11 12:42:00;;;;;;;;;;;;;;;14.77;41.37;92623.13;5032976;28;19913;-39
2023/04/11 12:44:25;;;;;;;;;;;;;;;14.46;40.47;92606.53;5034684;28;19963;-39